Time;durP1;ratioP1;P1;durP2;ratioP2;P2;SDS_P1;SDS_P2;PMS_P1;PMS_P2;Temp;Humidity;BMP_temperature;BMP_pressure;BME280_temperature;BME280_humidity;BME280_pressure;Samples;Min_cycle;Max_cycle;Signal;HPM_P1;HPM_P2
2023/10/03 00:00:59;;;;;;;1.70;1.00;;;19.00;60.70;;;;;;6218456;23;20217;-91
2023/10/03 00:03:28;;;;;;;3.93;1.17;;;19.00;60.80;;;;;;6247231;23;20158;-91
2023/10/03 00:06:00;;;;;;;1.93;1.10;;;19.00;60.80;;;;;;6244968;23;20648;-93
2023/10/03 00:08:28;;;;;;;0.93;0.77;;;18.90;60.80;;;;;;6245698;23;20567;-90
2023/10/03 00:10:57;;;;;;;4.63;1.10;;;18.90;60.80;;;;;;6246651;23;20175;-90
2023/10/03 00:13:26;;;;;;;1.00;0.47;;;18.90;60.80;;;;;;6220707;23;20170;-90
2023/10/03 00:15:55;;;;;;;0.30;0.30;;;18.80;60.80;;;;;;6245767;23;20620;-89
2023/10/03 00:18:24;;;;;;;0.30;0.30;;;18.80;60.80;;;;;;6244585;23;20562;-90
2023/10/03 00:20:53;;;;;;;0.77;0.77;;;18.80;61.10;;;;;;6246017;23;20224;-91
2023/10/03 00:23:22;;;;;;;0.40;0.40;;;18.80;61.30;;;;;;6220396;23;20190;-92
2023/10/03 00:25:54;;;;;;;0.80;0.50;;;18.80;61.30;;;;;;6246472;23;20181;-92
2023/10/03 00:28:23;;;;;;;1.10;0.77;;;18.80;61.70;;;;;;6245373;23;20461;-90
2023/10/03 00:30:51;;;;;;;1.90;1.00;;;18.70;62.40;;;;;;6245677;23;20398;-90
2023/10/03 00:33:25;;;;;;;1.87;0.80;;;18.70;62.70;;;;;;6246287;23;20511;-91
2023/10/03 00:35:55;;;;;;;0.80;0.80;;;18.70;62.70;;;;;;6245742;23;20465;-90
2023/10/03 00:38:24;;;;;;;1.43;1.20;;;18.70;62.50;;;;;;6247443;23;20169;-90
2023/10/03 00:40:55;;;;;;;2.53;1.03;;;18.70;62.40;;;;;;6245667;23;20171;-92
2023/10/03 00:43:27;;;;;;;1.40;0.93;;;18.60;62.20;;;;;;6246580;23;20167;-92
2023/10/03 00:45:55;;;;;;;0.93;0.70;;;18.60;62.20;;;;;;6244606;23;20162;-91
2023/10/03 00:48:26;;;;;;;1.30;0.90;;;18.60;62.20;;;;;;6246759;23;20513;-90
2023/10/03 00:50:57;;;;;;;3.73;2.07;;;18.60;62.30;;;;;;6245629;23;20155;-91
2023/10/03 00:53:26;;;;;;;0.73;0.70;;;18.60;62.40;;;;;;6247415;23;20185;-91
2023/10/03 00:55:59;;;;;;;2.83;1.17;;;18.60;62.40;;;;;;6245992;23;20171;-90
2023/10/03 00:58:32;;;;;;;0.40;0.37;;;18.60;62.50;;;;;;6245871;23;20619;-89
2023/10/03 01:01:03;;;;;;;2.20;1.30;;;18.60;62.80;;;;;;6219944;23;20173;-90
2023/10/03 01:03:36;;;;;;;0.40;0.40;;;18.50;62.70;;;;;;6246825;23;20157;-90
2023/10/03 01:06:08;;;;;;;0.83;0.60;;;18.50;62.60;;;;;;6245912;23;20500;-90
2023/10/03 01:08:39;;;;;;;0.20;0.20;;;18.50;62.60;;;;;;6245841;23;20166;-90
2023/10/03 01:11:15;;;;;;;1.00;0.90;;;18.50;62.70;;;;;;6245967;23;20162;-90
2023/10/03 01:13:47;;;;;;;0.33;0.33;;;18.40;62.60;;;;;;6219927;23;20163;-91
2023/10/03 01:16:21;;;;;;;2.40;1.03;;;18.40;62.60;;;;;;6246590;23;20198;-89
2023/10/03 01:18:52;;;;;;;0.63;0.63;;;18.40;62.70;;;;;;6245077;23;20505;-91
2023/10/03 01:21:22;;;;;;;0.57;0.40;;;18.40;62.80;;;;;;6219055;23;20228;-89
2023/10/03 01:23:54;;;;;;;0.93;0.93;;;18.30;63.60;;;;;;6245505;23;20237;-89
2023/10/03 01:26:24;;;;;;;0.30;0.30;;;18.40;62.90;;;;;;6245111;23;20190;-90
2023/10/03 01:28:54;;;;;;;5.20;1.07;;;18.30;62.90;;;;;;6244387;23;20169;-89
2023/10/03 01:31:23;;;;;;;2.67;0.60;;;18.30;62.80;;;;;;6246578;23;20504;-89
2023/10/03 01:33:51;;;;;;;3.57;1.13;;;18.20;62.80;;;;;;6246138;23;20173;-89
2023/10/03 01:36:20;;;;;;;0.80;0.67;;;18.30;63.10;;;;;;6244953;23;20181;-89
2023/10/03 01:38:49;;;;;;;0.63;0.63;;;18.20;63.10;;;;;;6245882;23;20170;-89
2023/10/03 01:41:19;;;;;;;0.20;0.20;;;18.20;63.10;;;;;;6246372;23;20178;-90
2023/10/03 01:43:49;;;;;;;3.20;1.47;;;18.20;63.30;;;;;;6244326;23;20155;-89
2023/10/03 01:46:18;;;;;;;0.60;0.50;;;18.20;63.30;;;;;;6245768;23;20202;-88
2023/10/03 01:48:47;;;;;;;1.57;1.47;;;18.10;63.30;;;;;;6245140;23;20667;-89
2023/10/03 01:51:16;;;;;;;0.70;0.70;;;18.10;63.50;;;;;;6245298;23;20636;-90
2023/10/03 01:53:44;;;;;;;0.73;0.43;;;18.10;63.70;;;;;;6240650;23;20662;-90
2023/10/03 01:56:14;;;;;;;0.30;0.30;;;18.10;64.20;;;;;;6246173;23;20178;-89
2023/10/03 01:58:46;;;;;;;0.87;0.87;;;18.00;64.10;;;;;;6244968;23;20624;-88
2023/10/03 02:01:14;;;;;;;0.40;0.23;;;18.00;64.20;;;;;;6245145;23;20166;-89
2023/10/03 02:03:45;;;;;;;0.20;0.20;;;17.90;64.00;;;;;;6245663;23;20177;-90
2023/10/03 02:06:14;;;;;;;0.57;0.40;;;17.90;64.10;;;;;;6219041;23;20159;-89
2023/10/03 02:08:43;;;;;;;0.50;0.50;;;17.90;64.20;;;;;;6243739;23;20244;-88
2023/10/03 02:11:12;;;;;;;0.30;0.30;;;17.90;64.20;;;;;;6244710;23;20240;-91
2023/10/03 02:13:42;;;;;;;0.30;0.30;;;17.90;64.40;;;;;;6244239;23;20620;-88
2023/10/03 02:16:15;;;;;;;1.13;0.93;;;17.80;64.30;;;;;;6245539;23;20189;-90
2023/10/03 02:18:43;;;;;;;0.80;0.63;;;17.80;65.30;;;;;;6217775;23;20163;-91
2023/10/03 02:21:18;;;;;;;0.87;0.87;;;17.80;64.40;;;;;;6216797;23;20170;-89
2023/10/03 02:23:48;;;;;;;0.80;0.70;;;17.70;64.60;;;;;;6244361;23;20196;-90
2023/10/03 02:26:17;;;;;;;0.43;0.43;;;17.70;64.70;;;;;;6244887;23;20167;-91
2023/10/03 02:28:46;;;;;;;0.77;0.77;;;17.70;64.60;;;;;;6242525;23;20198;-89
2023/10/03 02:31:16;;;;;;;1.50;0.50;;;17.70;64.50;;;;;;6244336;23;20174;-91
2023/10/03 02:33:45;;;;;;;0.67;0.50;;;17.60;64.50;;;;;;6244695;23;20202;-91
2023/10/03 02:36:15;;;;;;;0.30;0.30;;;17.60;64.60;;;;;;6246058;23;20616;-91
2023/10/03 02:38:44;;;;;;;2.20;0.93;;;17.60;65.50;;;;;;6245681;23;20154;-90
2023/10/03 02:41:15;;;;;;;0.40;0.40;;;17.60;64.80;;;;;;6245721;23;20178;-91
2023/10/03 02:43:43;;;;;;;0.80;0.50;;;17.60;64.80;;;;;;6244953;23;20212;-90
2023/10/03 02:46:12;;;;;;;0.30;0.30;;;17.50;64.70;;;;;;6245479;23;20177;-90
2023/10/03 02:48:44;;;;;;;0.40;0.40;;;17.50;64.70;;;;;;6244346;23;20251;-89
2023/10/03 02:51:14;;;;;;;1.20;0.90;;;17.50;64.60;;;;;;6246135;23;20159;-90
2023/10/03 02:53:44;;;;;;;0.30;0.30;;;17.50;64.60;;;;;;6218954;23;20541;-91
2023/10/03 02:56:15;;;;;;;0.30;0.30;;;17.50;64.70;;;;;;6244869;23;20189;-89
2023/10/03 02:58:44;;;;;;;0.30;0.30;;;17.50;64.60;;;;;;6245990;23;20254;-91
2023/10/03 03:01:12;;;;;;;0.30;0.30;;;17.50;64.70;;;;;;6246981;23;20249;-90
2023/10/03 03:03:43;;;;;;;0.73;0.73;;;17.50;64.80;;;;;;6246581;23;20175;-91
2023/10/03 03:06:14;;;;;;;0.37;0.37;;;17.40;65.10;;;;;;6220759;23;20233;-89
2023/10/03 03:08:44;;;;;;;1.00;0.80;;;17.40;65.00;;;;;;6247106;23;20201;-90
2023/10/03 03:11:14;;;;;;;1.13;0.97;;;17.40;65.00;;;;;;6246338;23;20581;-89
2023/10/03 03:13:42;;;;;;;0.87;0.87;;;17.40;65.00;;;;;;6246516;23;20171;-91
2023/10/03 03:16:14;;;;;;;0.63;0.55;;;17.40;64.90;;;;;;6246222;23;20386;-91
2023/10/03 03:18:49;;;;;;;0.93;0.77;;;17.40;65.10;;;;;;6245983;23;20169;-89
2023/10/03 03:21:20;;;;;;;0.30;0.30;;;17.40;65.20;;;;;;6221768;23;20159;-93
2023/10/03 03:23:56;;;;;;;0.60;0.53;;;17.30;65.40;;;;;;6246042;23;20194;-93
2023/10/03 03:26:36;;;;;;;2.07;0.90;;;17.30;65.50;;;;;;6247156;23;20151;-90
2023/10/03 03:29:20;;;;;;;0.40;0.40;;;17.30;65.70;;;;;;6222087;23;20193;-89
2023/10/03 03:31:50;;;;;;;1.10;1.00;;;17.30;65.60;;;;;;6247062;23;20163;-92
2023/10/03 03:34:23;;;;;;;1.70;1.03;;;17.30;65.70;;;;;;6245594;23;20162;-93
2023/10/03 03:36:55;;;;;;;0.50;0.50;;;17.20;65.70;;;;;;6242629;23;20563;-90
2023/10/03 03:39:26;;;;;;;1.87;0.53;;;17.20;65.70;;;;;;6244571;23;20162;-90
2023/10/03 03:41:56;;;;;;;0.80;0.50;;;17.20;65.70;;;;;;6218396;23;20154;-93
2023/10/03 03:44:25;;;;;;;0.63;0.50;;;17.10;65.50;;;;;;6245743;23;20170;-90
2023/10/03 03:46:54;;;;;;;0.60;0.60;;;17.20;65.70;;;;;;6245822;23;20228;-89
2023/10/03 03:49:28;;;;;;;0.80;0.80;;;17.10;65.60;;;;;;6245638;23;20266;-88
2023/10/03 03:51:57;;;;;;;0.77;0.63;;;17.10;65.50;;;;;;6245088;23;20159;-89
2023/10/03 03:54:25;;;;;;;0.40;0.40;;;17.10;65.40;;;;;;6245864;23;20170;-89
2023/10/03 03:57:18;;;;;;;1.90;1.33;;;17.10;65.50;;;;;;6244061;23;20473;-91
2023/10/03 04:18:49;;;;;;;5.23;1.00;;;16.80;66.20;;;;;;6086661;23;20262;-90
2023/10/03 04:21:19;;;;;;;0.40;0.40;;;16.80;66.20;;;;;;6176371;23;20647;-89
2023/10/03 04:23:49;;;;;;;0.43;0.43;;;16.70;66.20;;;;;;6216002;23;20163;-88
2023/10/03 04:26:18;;;;;;;1.03;0.87;;;16.70;66.20;;;;;;6214884;23;20156;-89
2023/10/03 04:28:46;;;;;;;1.40;0.53;;;16.70;66.30;;;;;;6214969;23;20191;-89
2023/10/03 04:31:15;;;;;;;0.73;0.47;;;16.70;66.30;;;;;;6216764;23;20167;-90
2023/10/03 04:33:45;;;;;;;0.50;0.50;;;16.60;66.30;;;;;;6213985;23;20171;-90
2023/10/03 04:36:17;;;;;;;8.23;0.63;;;16.60;66.30;;;;;;6215414;23;20601;-90
2023/10/03 04:38:46;;;;;;;0.43;0.43;;;16.60;66.50;;;;;;6215298;23;20160;-92
2023/10/03 04:41:15;;;;;;;0.60;0.60;;;16.60;66.50;;;;;;6215855;23;20171;-91
2023/10/03 04:43:43;;;;;;;0.80;0.80;;;16.60;66.40;;;;;;6214556;23;20175;-89
2023/10/03 04:46:12;;;;;;;1.50;1.00;;;16.60;66.50;;;;;;6214680;23;20169;-90
2023/10/03 04:48:42;;;;;;;0.87;0.87;;;16.60;66.60;;;;;;6215442;23;20195;-92
2023/10/03 04:51:16;;;;;;;1.50;0.70;;;16.60;66.90;;;;;;6214468;23;20167;-89
2023/10/03 04:53:44;;;;;;;1.50;1.33;;;16.60;66.80;;;;;;6212957;23;20186;-89
2023/10/03 04:56:13;;;;;;;3.30;1.37;;;16.50;67.10;;;;;;6188212;23;20175;-91
2023/10/03 04:58:42;;;;;;;3.13;1.17;;;16.50;67.20;;;;;;6187916;23;20179;-88
2023/10/03 05:01:13;;;;;;;4.93;0.93;;;16.50;67.50;;;;;;6215282;23;20174;-89
2023/10/03 05:03:41;;;;;;;3.70;0.50;;;16.50;67.50;;;;;;6213912;23;20167;-88
2023/10/03 05:06:11;;;;;;;1.13;0.93;;;16.60;67.80;;;;;;6215394;23;20171;-92
2023/10/03 05:08:42;;;;;;;1.80;1.67;;;16.50;68.00;;;;;;6215338;23;20202;-90
2023/10/03 05:11:13;;;;;;;0.40;0.40;;;16.50;68.00;;;;;;6215384;23;20159;-89
2023/10/03 05:13:43;;;;;;;1.27;0.93;;;16.50;68.50;;;;;;6213909;23;20250;-90
2023/10/03 05:16:12;;;;;;;1.93;0.50;;;16.50;68.40;;;;;;6215672;23;20155;-90
2023/10/03 05:18:40;;;;;;;0.70;0.70;;;16.50;68.30;;;;;;6214943;23;20294;-90
2023/10/03 05:21:10;;;;;;;1.20;0.77;;;16.50;68.40;;;;;;6215138;23;20167;-90
2023/10/03 05:23:41;;;;;;;1.93;1.47;;;16.50;68.60;;;;;;6220195;23;20519;-91
2023/10/03 05:26:11;;;;;;;1.70;0.87;;;16.60;68.50;;;;;;6234593;23;20219;-89
2023/10/03 05:28:40;;;;;;;1.23;1.13;;;16.60;68.50;;;;;;6210326;23;20309;-90
2023/10/03 05:31:12;;;;;;;0.50;0.50;;;16.70;68.40;;;;;;6235060;23;20223;-90
2023/10/03 05:33:42;;;;;;;1.40;1.30;;;16.70;68.40;;;;;;6234516;23;20166;-90
2023/10/03 05:36:16;;;;;;;0.97;0.93;;;16.70;69.30;;;;;;6233197;23;20225;-90
2023/10/03 05:38:45;;;;;;;0.63;0.63;;;16.70;68.50;;;;;;6228024;23;20177;-89
2023/10/03 05:41:23;;;;;;;1.13;0.50;;;16.80;68.80;;;;;;6227267;23;20539;-89
2023/10/03 05:43:52;;;;;;;2.87;1.73;;;16.80;69.00;;;;;;6223279;23;20190;-89
2023/10/03 05:46:23;;;;;;;0.40;0.40;;;16.80;69.00;;;;;;6222044;23;20162;-90
2023/10/03 05:48:53;;;;;;;0.90;0.73;;;16.80;69.00;;;;;;6215421;23;20194;-91
2023/10/03 05:51:24;;;;;;;0.50;0.50;;;16.90;69.10;;;;;;6215298;23;20159;-89
2023/10/03 05:53:54;;;;;;;0.57;0.57;;;16.90;69.10;;;;;;6190595;23;20210;-89
2023/10/03 05:56:24;;;;;;;0.40;0.40;;;16.90;69.10;;;;;;6215514;23;20160;-89
2023/10/03 05:58:53;;;;;;;1.07;0.67;;;17.00;69.00;;;;;;6213930;23;20167;-90
2023/10/03 06:01:22;;;;;;;0.33;0.33;;;17.00;68.80;;;;;;6215037;23;20194;-90
2023/10/03 06:03:50;;;;;;;1.70;0.70;;;17.10;68.80;;;;;;6215320;23;20174;-88
2023/10/03 06:06:21;;;;;;;0.77;0.47;;;17.10;68.80;;;;;;6214375;23;20242;-89
2023/10/03 06:08:49;;;;;;;3.00;1.17;;;17.20;68.80;;;;;;6214792;23;20156;-88
2023/10/03 06:11:19;;;;;;;0.67;0.67;;;17.20;68.70;;;;;;6213987;23;20253;-91
2023/10/03 06:13:49;;;;;;;4.33;0.97;;;17.30;68.70;;;;;;6215353;23;20173;-90
2023/10/03 06:16:17;;;;;;;1.20;1.10;;;17.30;68.80;;;;;;6214018;23;20171;-90
2023/10/03 06:18:46;;;;;;;1.07;0.83;;;17.40;68.80;;;;;;6214360;23;20195;-90
2023/10/03 06:21:15;;;;;;;1.57;0.60;;;17.40;68.80;;;;;;6214224;23;20201;-90
2023/10/03 06:23:46;;;;;;;1.20;1.10;;;17.50;68.80;;;;;;6214761;23;20190;-89
2023/10/03 06:26:17;;;;;;;0.50;0.50;;;17.60;69.40;;;;;;6188636;23;20315;-89
2023/10/03 06:28:46;;;;;;;2.80;0.83;;;17.70;68.50;;;;;;6214175;23;20160;-89
2023/10/03 06:31:16;;;;;;;0.83;0.63;;;17.70;68.20;;;;;;6214026;23;20174;-90
2023/10/03 06:33:45;;;;;;;1.93;0.87;;;17.80;68.10;;;;;;6214988;23;20160;-89
2023/10/03 06:36:14;;;;;;;1.90;0.80;;;17.90;68.00;;;;;;6214292;23;20218;-89
2023/10/03 06:38:43;;;;;;;0.43;0.43;;;17.90;67.90;;;;;;6215132;23;20171;-90
2023/10/03 06:41:19;;;;;;;0.30;0.30;;;18.00;68.00;;;;;;6214184;23;20183;-90
2023/10/03 06:43:47;;;;;;;0.40;0.40;;;18.10;67.80;;;;;;6188696;23;20155;-90
2023/10/03 06:46:18;;;;;;;0.67;0.67;;;18.10;67.70;;;;;;6215549;23;20178;-90
2023/10/03 06:48:47;;;;;;;0.70;0.60;;;18.20;67.70;;;;;;6214263;23;20186;-89
2023/10/03 06:51:16;;;;;;;1.27;0.43;;;18.30;67.50;;;;;;6213226;23;20198;-89
2023/10/03 06:53:47;;;;;;;0.73;0.67;;;18.30;67.50;;;;;;6213795;23;20238;-89
2023/10/03 06:56:16;;;;;;;0.87;0.70;;;18.40;67.50;;;;;;6213581;23;20620;-89
2023/10/03 06:58:46;;;;;;;0.90;0.80;;;18.50;67.30;;;;;;6214068;23;20178;-89
2023/10/03 07:01:14;;;;;;;0.87;0.60;;;18.60;67.20;;;;;;6212031;23;20504;-88
2023/10/03 07:03:44;;;;;;;4.37;1.33;;;18.70;67.10;;;;;;6213482;23;20246;-88
2023/10/03 07:06:13;;;;;;;1.00;0.73;;;18.70;66.90;;;;;;6213537;23;20486;-90
2023/10/03 07:08:42;;;;;;;0.60;0.60;;;18.80;66.90;;;;;;6213120;23;20186;-90
2023/10/03 07:11:16;;;;;;;1.07;0.63;;;18.90;66.60;;;;;;6213145;23;20187;-91
2023/10/03 07:13:45;;;;;;;3.20;0.87;;;19.00;65.90;;;;;;6189461;23;20198;-89
2023/10/03 07:16:15;;;;;;;0.67;0.67;;;19.00;65.50;;;;;;6214961;23;20168;-90
2023/10/03 07:18:46;;;;;;;4.70;1.17;;;19.10;65.40;;;;;;6214273;23;20277;-89
2023/10/03 07:21:16;;;;;;;4.33;1.20;;;19.20;65.20;;;;;;6187638;23;20233;-89
2023/10/03 07:23:45;;;;;;;0.87;0.80;;;19.30;65.00;;;;;;6214689;23;20170;-91
2023/10/03 07:26:14;;;;;;;2.27;1.00;;;19.40;64.70;;;;;;6214842;23;20543;-93
2023/10/03 07:28:43;;;;;;;1.03;0.33;;;19.50;64.50;;;;;;6215728;23;20246;-90
2023/10/03 07:31:13;;;;;;;0.60;0.43;;;19.60;64.50;;;;;;6213745;23;20230;-90
2023/10/03 07:33:43;;;;;;;3.17;1.10;;;19.60;64.30;;;;;;6214854;23;20163;-89
2023/10/03 07:36:17;;;;;;;0.73;0.63;;;19.70;63.80;;;;;;6214694;23;20213;-91
2023/10/03 07:38:46;;;;;;;0.30;0.30;;;19.80;63.80;;;;;;6215560;23;20155;-90
2023/10/03 07:41:17;;;;;;;7.97;0.70;;;19.90;63.70;;;;;;6214057;23;20167;-89
2023/10/03 07:43:47;;;;;;;0.43;0.43;;;20.00;63.40;;;;;;6214925;23;20155;-89
2023/10/03 07:46:22;;;;;;;0.33;0.33;;;20.00;63.00;;;;;;6215193;23;20166;-89
2023/10/03 07:48:52;;;;;;;0.80;0.80;;;20.10;63.50;;;;;;6216172;23;20241;-91
2023/10/03 07:51:26;;;;;;;1.70;1.00;;;20.20;62.80;;;;;;6214842;23;20195;-89
2023/10/03 07:53:55;;;;;;;3.30;1.60;;;20.20;62.50;;;;;;6216069;23;20155;-89
2023/10/03 07:56:30;;;;;;;6.78;1.40;;;20.30;62.50;;;;;;6215538;23;20171;-92
2023/10/03 07:59:02;;;;;;;1.00;0.90;;;20.40;60.80;;;;;;6216500;23;20477;-89
2023/10/03 08:01:38;;;;;;;0.53;0.53;;;20.40;60.90;;;;;;6189546;23;20160;-88
2023/10/03 08:04:31;;;;;;;1.98;0.93;;;20.50;60.30;;;;;;6215300;23;20203;-90
2023/10/03 08:07:04;;;;;;;1.75;1.10;;;20.60;60.00;;;;;;6215766;23;20237;-90
2023/10/03 08:09:33;;;;;;;2.40;1.42;;;20.70;59.60;;;;;;6216290;23;20163;-87
2023/10/03 08:12:11;;;;;;;3.10;1.27;;;20.70;59.20;;;;;;6214540;23;20199;-91
2023/10/03 08:14:41;;;;;;;1.65;1.55;;;20.70;58.50;;;;;;6216011;23;20166;-91
2023/10/03 08:17:11;;;;;;;0.63;0.63;;;20.80;59.00;;;;;;6214145;23;20195;-88
2023/10/03 08:19:45;;;;;;;6.10;1.05;;;20.90;58.90;;;;;;6213458;23;20171;-90
2023/10/03 08:22:16;;;;;;;1.15;0.60;;;20.90;57.50;;;;;;6191454;23;20160;-89
2023/10/03 08:24:44;;;;;;;0.45;0.45;;;20.90;57.00;;;;;;6215869;23;20253;-89
2023/10/03 08:27:18;;;;;;;0.80;0.73;;;21.00;57.30;;;;;;6189954;23;20174;-89
2023/10/03 08:29:53;;;;;;;0.60;0.60;;;21.10;57.50;;;;;;6215120;23;20159;-85
2023/10/03 08:32:25;;;;;;;0.55;0.40;;;21.10;57.10;;;;;;6212804;23;20168;-88
2023/10/03 08:34:54;;;;;;;1.08;0.98;;;21.30;57.60;;;;;;6212649;23;20156;-89
2023/10/03 08:37:24;;;;;;;0.80;0.73;;;21.30;57.10;;;;;;6188551;23;20482;-90
2023/10/03 08:39:53;;;;;;;0.75;0.75;;;21.40;57.30;;;;;;6213345;23;20229;-90
2023/10/03 08:42:34;;;;;;;0.80;0.80;;;21.50;57.10;;;;;;6165001;23;20222;-88
2023/10/03 08:45:16;;;;;;;0.80;0.80;;;21.40;55.20;;;;;;6215122;23;20155;-87
2023/10/03 08:47:50;;;;;;;0.38;0.38;;;21.50;55.80;;;;;;6214817;23;20202;-91
2023/10/03 08:50:33;;;;;;;3.22;1.33;;;21.60;55.60;;;;;;6213577;23;20163;-89
2023/10/03 08:53:16;;;;;;;0.70;0.70;;;21.70;55.50;;;;;;6213606;23;20167;-92
2023/10/03 08:55:49;;;;;;;1.13;1.02;;;21.70;54.90;;;;;;6189606;23;20193;-92
2023/10/03 08:58:19;;;;;;;1.02;0.82;;;21.80;55.30;;;;;;6189652;23;20174;-90
2023/10/03 09:00:49;;;;;;;0.30;0.30;;;21.90;55.40;;;;;;6188882;23;20257;-91
2023/10/03 09:03:19;;;;;;;0.68;0.63;;;21.90;54.70;;;;;;6189009;23;20219;-93
2023/10/03 09:05:49;;;;;;;0.60;0.55;;;21.90;53.90;;;;;;6214287;23;20179;-90
2023/10/03 09:34:14;;;;;;;0.88;0.63;;;22.50;53.50;;;;;;6006230;23;20277;-89
2023/10/03 09:55:51;;;;;;;;;;;;;;;;;;;;;
2023/10/03 10:12:18;;;;;;;0.20;0.20;;;23.40;52.30;;;;;;6190111;23;20528;-89
2023/10/03 10:15:21;;;;;;;4.75;0.50;;;23.40;52.30;;;;;;6185720;23;20167;-86
2023/10/03 10:22:05;;;;;;;0.57;0.57;;;23.50;51.90;;;;;;6034838;23;20177;-88
2023/10/03 10:25:26;;;;;;;2.28;0.40;;;23.50;51.30;;;;;;6017388;23;20738;-86
2023/10/03 10:28:02;;;;;;;1.48;0.90;;;23.60;51.80;;;;;;6124730;23;20176;-88
2023/10/03 10:30:31;;;;;;;0.52;0.52;;;23.60;51.80;;;;;;6124399;23;20532;-93
2023/10/03 10:33:25;;;;;;;0.30;0.30;;;23.70;52.00;;;;;;6123274;23;20224;-89
2023/10/03 10:35:56;;;;;;;1.85;1.05;;;23.80;51.80;;;;;;6098116;23;20176;-91
2023/10/03 10:38:52;;;;;;;1.48;1.10;;;23.80;51.80;;;;;;6124677;23;20191;-89
2023/10/03 10:41:27;;;;;;;0.82;0.75;;;23.90;51.50;;;;;;6123444;23;20604;-89
2023/10/03 10:44:09;;;;;;;0.65;0.65;;;23.80;50.70;;;;;;6098722;23;20161;-91
2023/10/03 10:46:42;;;;;;;0.75;0.75;;;23.80;50.70;;;;;;6123849;23;20538;-88
2023/10/03 10:49:51;;;;;;;0.70;0.70;;;23.90;50.80;;;;;;6126006;23;20476;-90
2023/10/03 10:52:52;;;;;;;2.78;1.75;;;24.00;51.20;;;;;;6123285;23;20733;-91
2023/10/03 10:55:22;;;;;;;1.23;0.70;;;24.00;51.10;;;;;;6124449;23;20611;-88
2023/10/03 10:58:07;;;;;;;1.25;1.15;;;24.10;51.20;;;;;;6124308;23;20220;-88
2023/10/03 11:00:36;;;;;;;0.30;0.30;;;24.10;51.20;;;;;;6125289;23;20161;-87
2023/10/03 11:03:06;;;;;;;1.67;0.65;;;24.20;51.30;;;;;;6124070;23;20255;-88
2023/10/03 11:05:42;;;;;;;0.68;0.68;;;24.30;51.20;;;;;;6124703;23;20185;-88
2023/10/03 11:08:11;;;;;;;5.10;1.65;;;24.30;51.40;;;;;;6124823;23;20536;-88
2023/10/03 11:10:49;;;;;;;7.13;0.80;;;24.40;50.90;;;;;;6123545;23;20256;-89
2023/10/03 11:13:19;;;;;;;0.45;0.45;;;24.40;50.40;;;;;;6124894;23;20560;-90
2023/10/03 11:15:49;;;;;;;0.80;0.50;;;24.50;50.50;;;;;;6099359;23;20257;-89
2023/10/03 11:18:18;;;;;;;0.82;0.82;;;24.50;50.40;;;;;;6126507;23;20197;-88
2023/10/03 11:20:47;;;;;;;4.25;0.88;;;24.50;50.10;;;;;;6124238;23;20252;-87
2023/10/03 11:23:18;;;;;;;1.98;1.13;;;24.60;50.20;;;;;;6125852;23;20238;-89
2023/10/03 11:25:54;;;;;;;0.80;0.50;;;24.60;50.20;;;;;;6126467;23;20173;-94
2023/10/03 11:28:24;;;;;;;0.30;0.30;;;24.70;50.40;;;;;;6126978;23;20162;-92
2023/10/03 11:31:04;;;;;;;2.05;1.08;;;24.70;50.50;;;;;;6126929;23;20249;-92
2023/10/03 11:33:43;;;;;;;6.38;1.80;;;24.80;50.60;;;;;;6128460;23;20184;-91
2023/10/03 11:36:13;;;;;;;4.68;0.50;;;24.80;49.90;;;;;;6127897;23;20225;-93
2023/10/03 11:38:46;;;;;;;5.03;0.98;;;24.90;49.90;;;;;;6101453;23;20213;-90
2023/10/03 11:41:15;;;;;;;4.63;0.73;;;24.90;49.60;;;;;;6126649;23;20176;-92
2023/10/03 11:43:48;;;;;;;2.75;1.25;;;25.00;49.60;;;;;;6127830;23;20180;-91
2023/10/03 11:46:16;;;;;;;0.43;0.43;;;25.00;49.90;;;;;;6127263;23;20161;-91
2023/10/03 11:48:45;;;;;;;1.52;0.70;;;25.10;49.90;;;;;;6126275;23;20169;-91
2023/10/03 11:51:15;;;;;;;0.40;0.40;;;25.10;49.70;;;;;;6127596;23;20200;-92
2023/10/03 11:53:43;;;;;;;0.40;0.40;;;25.10;49.80;;;;;;6130052;23;20229;-95
2023/10/03 11:56:12;;;;;;;0.20;0.20;;;25.20;49.90;;;;;;6130648;23;20174;-94
2023/10/03 11:58:41;;;;;;;0.95;0.63;;;25.20;49.90;;;;;;6129565;23;20199;-96
2023/10/03 12:01:14;;;;;;;0.32;0.32;;;25.30;50.00;;;;;;6137724;23;20744;-95
2023/10/03 12:03:43;;;;;;;0.65;0.55;;;25.30;50.00;;;;;;6139974;23;20543;-95
2023/10/03 12:06:12;;;;;;;0.80;0.63;;;25.40;50.00;;;;;;6135125;23;20173;-95
2023/10/03 12:11:21;;;;;;;0.38;0.38;;;25.40;49.40;;;;;;6158556;23;20176;-93
2023/10/03 12:13:50;;;;;;;0.50;0.50;;;25.40;49.00;;;;;;6160128;23;20173;-94
2023/10/03 12:16:20;;;;;;;0.82;0.82;;;25.50;48.90;;;;;;6154445;23;20822;-91
2023/10/03 12:18:49;;;;;;;0.95;0.80;;;25.50;48.60;;;;;;6156911;23;20161;-91
2023/10/03 12:21:18;;;;;;;1.27;1.10;;;25.50;49.20;;;;;;6160152;23;20181;-92
2023/10/03 12:23:47;;;;;;;0.55;0.52;;;25.60;49.30;;;;;;6159163;23;20172;-91
2023/10/03 12:26:15;;;;;;;4.50;1.35;;;25.60;48.60;;;;;;6155535;23;20553;-91
2023/10/03 12:28:56;;;;;;;0.40;0.30;;;25.60;48.20;;;;;;6155896;23;20161;-90
2023/10/03 12:31:27;;;;;;;1.77;0.73;;;25.60;48.50;;;;;;6155141;23;20616;-90
2023/10/03 12:33:58;;;;;;;2.38;0.73;;;25.70;48.90;;;;;;6155483;23;20192;-92
2023/10/03 12:36:27;;;;;;;3.30;1.10;;;25.70;48.90;;;;;;6156401;23;20259;-93
2023/10/03 12:39:05;;;;;;;7.88;1.67;;;25.70;48.10;;;;;;6155668;23;20176;-93
2023/10/03 12:41:34;;;;;;;0.70;0.70;;;25.70;48.50;;;;;;6154711;23;20510;-93
2023/10/03 12:44:04;;;;;;;1.55;1.25;;;25.80;48.30;;;;;;6154814;23;20176;-90
2023/10/03 12:46:36;;;;;;;0.90;0.70;;;25.80;48.40;;;;;;6155125;23;20544;-92
2023/10/03 12:49:07;;;;;;;2.22;0.82;;;25.80;48.60;;;;;;6156484;23;20187;-93
2023/10/03 12:51:35;;;;;;;1.58;1.27;;;25.90;48.40;;;;;;6155937;23;20161;-90
2023/10/03 12:54:06;;;;;;;3.88;1.45;;;25.90;48.20;;;;;;6155322;23;20200;-91
2023/10/03 12:56:35;;;;;;;0.40;0.40;;;25.90;48.10;;;;;;6155406;23;20164;-94
2023/10/03 12:59:04;;;;;;;2.00;0.52;;;26.00;48.40;;;;;;6154772;23;20169;-90
2023/10/03 13:01:34;;;;;;;1.20;0.65;;;26.00;48.30;;;;;;6155780;23;20184;-93
2023/10/03 13:04:04;;;;;;;4.03;0.82;;;26.00;48.10;;;;;;6154008;23;20252;-90
2023/10/03 13:06:33;;;;;;;2.78;0.68;;;26.00;48.40;;;;;;6154918;23;20171;-89
2023/10/03 13:09:01;;;;;;;0.30;0.30;;;26.10;48.70;;;;;;6153579;23;20364;-87
2023/10/03 13:11:33;;;;;;;0.75;0.55;;;26.10;48.90;;;;;;6155619;23;20160;-91
2023/10/03 13:14:04;;;;;;;0.20;0.20;;;26.20;48.40;;;;;;6154714;23;20191;-92
2023/10/03 13:16:34;;;;;;;0.70;0.60;;;26.20;48.10;;;;;;6156273;23;20194;-92
2023/10/03 13:19:08;;;;;;;1.20;0.90;;;26.40;48.80;;;;;;6155469;23;20167;-87
2023/10/03 13:21:38;;;;;;;0.60;0.60;;;26.60;48.60;;;;;;6152358;23;20180;-86
2023/10/03 13:24:07;;;;;;;0.50;0.50;;;26.90;48.20;;;;;;6153896;23;20485;-85
2023/10/03 13:26:36;;;;;;;2.13;0.75;;;27.10;48.20;;;;;;6126671;23;20252;-88
2023/10/03 13:29:06;;;;;;;1.65;0.75;;;27.20;47.20;;;;;;6152107;23;20171;-82
2023/10/03 13:31:37;;;;;;;0.25;0.25;;;27.20;47.30;;;;;;6153080;23;20176;-84
2023/10/03 13:34:06;;;;;;;1.02;0.50;;;27.20;47.60;;;;;;6152125;23;20184;-85
2023/10/03 13:36:35;;;;;;;0.70;0.68;;;27.10;47.50;;;;;;6149065;23;20185;-85
2023/10/03 13:39:05;;;;;;;1.85;0.57;;;27.10;47.40;;;;;;6154256;23;20479;-86
2023/10/03 13:41:35;;;;;;;1.77;1.42;;;27.10;47.80;;;;;;6150909;23;20157;-84
2023/10/03 13:44:07;;;;;;;2.70;0.80;;;27.00;47.40;;;;;;6150028;23;20274;-86
2023/10/03 13:46:37;;;;;;;0.75;0.60;;;26.90;46.70;;;;;;6152042;23;20169;-83
2023/10/03 13:49:06;;;;;;;0.98;0.40;;;26.80;46.30;;;;;;6152956;23;20164;-83
2023/10/03 13:51:35;;;;;;;2.67;1.67;;;26.70;46.30;;;;;;6161606;23;20172;-83
2023/10/03 13:54:05;;;;;;;0.55;0.50;;;26.70;46.50;;;;;;6173823;23;20195;-83
2023/10/03 13:56:34;;;;;;;0.73;0.73;;;26.60;46.50;;;;;;6174042;23;20169;-83
2023/10/03 13:59:05;;;;;;;1.05;0.93;;;26.50;46.50;;;;;;6173996;23;20176;-83
2023/10/03 14:01:34;;;;;;;0.80;0.63;;;26.60;46.90;;;;;;6170887;23;20180;-83
2023/10/03 14:04:07;;;;;;;1.35;1.25;;;26.50;46.80;;;;;;6172744;23;20160;-84
2023/10/03 14:37:38;;;;;;;1.02;0.68;;;26.00;47.70;;;;;;6201215;22;20226;-83
2023/10/03 14:40:15;;;;;;;0.43;0.43;;;26.00;47.70;;;;;;6182625;23;20197;-81
2023/10/03 14:42:45;;;;;;;1.60;0.80;;;25.90;48.40;;;;;;6182074;23;20170;-82
2023/10/03 14:45:14;;;;;;;5.75;0.82;;;26.00;48.00;;;;;;6208408;23;20163;-81
2023/10/03 14:47:43;;;;;;;0.30;0.30;;;25.90;47.90;;;;;;6183072;23;20174;-82
2023/10/03 14:50:12;;;;;;;1.15;0.80;;;25.90;47.80;;;;;;6208597;23;20174;-82
2023/10/03 14:52:42;;;;;;;0.60;0.60;;;25.80;47.60;;;;;;6208854;23;20176;-83
2023/10/03 14:55:12;;;;;;;1.02;0.80;;;25.80;48.00;;;;;;6210835;23;20510;-81
2023/10/03 14:57:40;;;;;;;0.50;0.50;;;25.70;47.90;;;;;;6211231;23;20163;-83
2023/10/03 15:00:10;;;;;;;1.85;1.73;;;25.70;47.70;;;;;;6210232;23;20605;-82
2023/10/03 15:02:38;;;;;;;0.65;0.65;;;25.70;48.70;;;;;;6211551;23;20171;-84
2023/10/03 15:05:14;;;;;;;7.18;0.55;;;25.60;47.90;;;;;;6209994;23;20609;-83